createdAt,value
2023-04-29T00:03:34.392Z,39.03
2023-04-29T00:04:35.406Z,38.03
2023-04-29T00:05:35.306Z,37.89
2023-04-29T00:06:35.221Z,37.78
2023-04-29T00:07:35.833Z,37.74
2023-04-29T00:08:35.338Z,37.66
2023-04-29T00:09:35.412Z,37.62
2023-04-29T00:10:35.472Z,37.62
2023-04-29T00:11:35.557Z,37.60
2023-04-29T00:12:35.631Z,37.57
2023-04-29T00:13:35.712Z,37.56
2023-04-29T00:14:35.786Z,37.52
2023-04-29T00:15:35.894Z,37.53
2023-04-29T00:16:35.996Z,37.51
2023-04-29T00:17:36.055Z,37.49
2023-04-29T00:18:36.086Z,37.50
2023-04-29T00:19:36.194Z,37.50
2023-04-29T00:20:36.247Z,37.50
2023-04-29T00:21:36.323Z,37.48
2023-04-29T00:22:36.412Z,37.47
2023-04-29T00:23:36.475Z,37.48
2023-04-29T00:24:36.562Z,37.48
2023-04-29T00:25:36.617Z,37.48
2023-04-29T00:26:36.630Z,37.48
2023-04-29T00:27:36.663Z,37.47
2023-04-29T00:28:36.663Z,37.47
2023-04-29T00:29:36.686Z,37.48
2023-04-29T00:30:36.708Z,37.46
2023-04-29T00:31:36.775Z,37.46
2023-04-29T00:32:36.782Z,37.46
2023-04-29T00:33:36.769Z,37.47
2023-04-29T00:34:36.793Z,37.47
2023-04-29T00:35:36.846Z,37.47
2023-04-29T00:36:36.833Z,37.47
2023-04-29T00:37:36.862Z,37.44
2023-04-29T00:38:36.879Z,37.44
2023-04-29T00:39:36.910Z,37.44
2023-04-29T00:40:36.925Z,37.44
2023-04-29T00:41:36.952Z,37.44
2023-04-29T00:42:36.964Z,37.44
2023-04-29T00:43:36.996Z,37.43
2023-04-29T00:44:37.076Z,37.44
2023-04-29T00:45:37.053Z,37.43
2023-04-29T00:46:37.081Z,37.43
2023-04-29T00:47:37.087Z,37.43
2023-04-29T00:48:37.096Z,37.44
2023-04-29T00:49:37.156Z,37.44
2023-04-29T00:50:37.152Z,37.43
2023-04-29T00:51:37.302Z,37.43
2023-04-29T00:52:37.193Z,37.43
2023-04-29T00:53:37.226Z,37.43
2023-04-29T00:54:37.282Z,37.43
2023-04-29T00:55:37.272Z,37.41
2023-04-29T00:56:37.298Z,37.44
2023-04-29T00:57:37.326Z,37.42
2023-04-29T00:58:37.346Z,37.44
2023-04-29T00:59:37.362Z,37.43
2023-04-29T01:00:37.385Z,37.40
2023-04-29T01:01:37.454Z,37.44
2023-04-29T01:02:37.524Z,37.44
2023-04-29T01:03:37.666Z,37.42
2023-04-29T01:04:37.508Z,37.41
2023-04-29T01:05:37.503Z,37.42
2023-04-29T01:06:37.524Z,37.42
2023-04-29T01:07:37.574Z,37.41
2023-04-29T01:08:37.573Z,37.42
2023-04-29T01:09:37.583Z,37.43
2023-04-29T01:10:37.611Z,37.41
2023-04-29T01:11:37.622Z,37.38
2023-04-29T01:12:37.642Z,37.40
2023-04-29T01:13:37.657Z,37.43
2023-04-29T01:14:37.697Z,37.41
2023-04-29T01:15:37.771Z,37.42
2023-04-29T01:16:37.894Z,37.41
2023-04-29T01:17:37.860Z,37.38
2023-04-29T01:18:37.908Z,37.39
2023-04-29T01:19:37.970Z,37.41
2023-04-29T01:20:38.072Z,37.40
2023-04-29T01:21:38.120Z,37.40
2023-04-29T01:22:38.210Z,37.40
2023-04-29T01:23:38.298Z,37.40
2023-04-29T01:24:38.328Z,37.39
2023-04-29T01:25:38.358Z,37.40
2023-04-29T01:26:38.411Z,37.39
2023-04-29T01:27:38.473Z,37.37
2023-04-29T01:28:38.553Z,37.36
2023-04-29T01:29:38.586Z,37.39
2023-04-29T01:30:38.598Z,37.39
2023-04-29T01:31:38.676Z,37.37
2023-04-29T01:32:38.658Z,37.38
2023-04-29T01:33:38.676Z,37.38
2023-04-29T01:34:38.708Z,37.37
2023-04-29T01:35:38.745Z,37.36
2023-04-29T01:36:38.751Z,37.38
2023-04-29T01:37:38.775Z,37.37
2023-04-29T01:38:38.806Z,37.40
2023-04-29T01:39:38.856Z,37.38
2023-04-29T01:40:38.850Z,37.38
2023-04-29T01:41:38.877Z,37.37
2023-04-29T01:42:38.903Z,37.37
2023-04-29T01:43:38.937Z,37.37
2023-04-29T01:44:38.965Z,37.38
2023-04-29T01:45:38.998Z,37.37
2023-04-29T01:46:39.062Z,37.36
2023-04-29T01:47:39.152Z,37.37
2023-04-29T01:48:39.065Z,37.37
2023-04-29T01:49:39.096Z,37.35
2023-04-29T01:50:39.159Z,37.37
2023-04-29T01:51:39.148Z,37.33
2023-04-29T01:52:39.184Z,37.35
2023-04-29T01:53:39.207Z,37.34
2023-04-29T01:54:39.228Z,37.36
2023-04-29T01:55:39.289Z,37.36
2023-04-29T01:56:39.290Z,37.35
2023-04-29T01:57:39.320Z,37.34
2023-04-29T01:58:39.357Z,37.36
2023-04-29T01:59:39.364Z,37.34
2023-04-29T02:00:39.401Z,37.33
2023-04-29T02:01:39.411Z,37.33
2023-04-29T02:02:39.545Z,37.34
2023-04-29T02:03:39.598Z,37.33
2023-04-29T02:04:39.521Z,37.34
2023-04-29T02:05:39.518Z,37.35
2023-04-29T02:06:39.541Z,37.34
2023-04-29T02:07:39.561Z,37.34
2023-04-29T02:08:39.595Z,37.36
2023-04-29T02:09:39.635Z,37.34
2023-04-29T02:10:39.660Z,37.34
2023-04-29T02:11:39.714Z,37.36
2023-04-29T02:12:39.712Z,37.32
2023-04-29T02:13:39.750Z,37.35
2023-04-29T02:14:39.782Z,37.32
2023-04-29T02:15:39.815Z,37.33
2023-04-29T02:16:39.877Z,37.31
2023-04-29T02:17:39.951Z,37.31
2023-04-29T02:18:39.908Z,37.33
2023-04-29T02:19:39.942Z,37.33
2023-04-29T02:20:39.993Z,37.33
2023-04-29T02:21:40.029Z,37.31
2023-04-29T02:22:40.025Z,37.32
2023-04-29T02:23:40.076Z,37.33
2023-04-29T02:24:40.080Z,37.30
2023-04-29T02:25:40.106Z,37.33
2023-04-29T02:26:40.132Z,37.30
2023-04-29T02:27:40.185Z,37.32
2023-04-29T02:28:40.190Z,37.32
2023-04-29T02:29:40.217Z,37.34
2023-04-29T02:30:40.244Z,37.30
2023-04-29T02:31:40.342Z,37.30
2023-04-29T02:32:40.324Z,37.30
2023-04-29T02:33:40.318Z,37.29
2023-04-29T02:34:40.364Z,37.32
2023-04-29T02:35:40.369Z,37.28
2023-04-29T02:36:40.396Z,37.28
2023-04-29T02:37:40.429Z,37.29
2023-04-29T02:38:40.459Z,37.28
2023-04-29T02:39:40.485Z,37.29
2023-04-29T02:40:40.512Z,37.29
2023-04-29T02:41:40.532Z,37.30
2023-04-29T02:42:40.558Z,37.30
2023-04-29T02:43:40.602Z,37.28
2023-04-29T02:44:40.603Z,37.29
2023-04-29T02:45:40.720Z,37.28
2023-04-29T02:46:40.646Z,37.30
2023-04-29T02:47:40.721Z,37.29
2023-04-29T02:48:40.696Z,37.28
2023-04-29T02:49:40.718Z,37.28
2023-04-29T02:50:40.776Z,37.28
2023-04-29T02:51:40.788Z,37.26
2023-04-29T02:52:40.800Z,37.27
2023-04-29T02:53:40.830Z,37.28
2023-04-29T02:54:40.857Z,37.28
2023-04-29T02:55:40.904Z,37.28
2023-04-29T02:56:40.915Z,37.29
2023-04-29T02:57:40.936Z,37.29
2023-04-29T02:58:40.965Z,37.29
2023-04-29T02:59:41.014Z,37.27
2023-04-29T03:00:41.017Z,37.26
2023-04-29T03:01:41.073Z,37.27
2023-04-29T03:02:41.150Z,37.28
2023-04-29T03:03:41.208Z,37.28
2023-04-29T03:04:41.134Z,37.29
2023-04-29T03:05:41.142Z,37.29
2023-04-29T03:06:41.190Z,37.28
2023-04-29T03:07:41.197Z,37.25
2023-04-29T03:08:41.222Z,37.26
2023-04-29T03:09:41.251Z,37.27
2023-04-29T03:10:41.888Z,37.28
2023-04-29T03:11:41.307Z,37.26
2023-04-29T03:12:41.319Z,37.26
2023-04-29T03:13:41.348Z,37.26
2023-04-29T03:14:41.374Z,37.26
2023-04-29T03:15:41.433Z,37.27
2023-04-29T03:16:41.506Z,37.25
2023-04-29T03:17:41.465Z,37.24
2023-04-29T03:18:41.481Z,37.27
2023-04-29T03:19:41.507Z,37.27
2023-04-29T03:20:41.540Z,37.23
2023-04-29T03:21:41.573Z,37.22
2023-04-29T03:22:41.599Z,37.22
2023-04-29T03:23:41.620Z,37.20
2023-04-29T03:24:41.641Z,37.21
2023-04-29T03:25:41.712Z,37.17
2023-04-29T03:26:41.684Z,37.16
2023-04-29T03:27:41.704Z,37.16
2023-04-29T03:28:41.717Z,37.11
2023-04-29T03:29:41.728Z,37.13
2023-04-29T03:30:41.737Z,37.09
2023-04-29T03:31:41.815Z,37.09
2023-04-29T03:32:41.840Z,37.07
2023-04-29T03:33:41.759Z,37.08
2023-04-29T03:34:41.762Z,37.05
2023-04-29T03:35:41.776Z,37.07
2023-04-29T03:36:41.778Z,37.02
2023-04-29T03:37:41.790Z,37.04
2023-04-29T03:38:41.792Z,37.03
2023-04-29T03:39:41.799Z,37.02
2023-04-29T03:40:41.822Z,36.99
2023-04-29T03:41:41.824Z,37.01
2023-04-29T03:42:41.835Z,36.99
2023-04-29T03:43:41.826Z,36.95
2023-04-29T03:44:41.831Z,36.97
2023-04-29T03:45:41.848Z,36.95
2023-04-29T03:46:41.890Z,36.92
2023-04-29T03:47:41.911Z,36.94
2023-04-29T03:48:41.863Z,36.90
2023-04-29T03:49:41.871Z,36.91
2023-04-29T03:50:41.890Z,36.90
2023-04-29T03:51:41.886Z,36.90
2023-04-29T03:52:41.926Z,36.89
2023-04-29T03:53:41.916Z,36.89
2023-04-29T03:54:41.916Z,36.87
2023-04-29T03:55:41.921Z,36.85
2023-04-29T03:56:41.932Z,36.83
2023-04-29T03:57:42.530Z,36.83
2023-04-29T03:58:41.941Z,36.81
2023-04-29T03:59:41.949Z,36.79
2023-04-29T04:00:41.947Z,36.80
2023-04-29T04:01:41.960Z,36.78
2023-04-29T04:02:42.277Z,36.79
2023-04-29T04:03:42.149Z,36.78
2023-04-29T04:04:42.188Z,36.80
2023-04-29T04:05:41.972Z,36.79
2023-04-29T04:06:41.986Z,36.78
2023-04-29T04:07:41.996Z,36.77
2023-04-29T04:08:42.007Z,36.76
2023-04-29T04:09:42.037Z,36.77
2023-04-29T04:10:42.032Z,36.75
2023-04-29T04:11:42.066Z,36.76
2023-04-29T04:12:44.076Z,36.75
2023-04-29T04:13:42.087Z,36.77
2023-04-29T04:14:42.102Z,36.73
2023-04-29T04:15:42.101Z,36.71
2023-04-29T04:16:42.301Z,36.71
2023-04-29T04:17:42.143Z,36.70
2023-04-29T04:18:42.081Z,36.68
2023-04-29T04:19:42.102Z,36.70
2023-04-29T04:20:42.107Z,36.68
2023-04-29T04:21:42.105Z,36.68
2023-04-29T04:22:42.113Z,36.68
2023-04-29T04:23:42.105Z,36.69
2023-04-29T04:24:42.086Z,36.67
2023-04-29T04:25:42.086Z,36.67
2023-04-29T04:26:42.084Z,36.67
2023-04-29T04:27:42.092Z,36.69
2023-04-29T04:28:42.088Z,36.67
2023-04-29T04:29:42.121Z,36.66
2023-04-29T04:30:42.098Z,36.66
2023-04-29T04:31:42.162Z,36.65
2023-04-29T04:32:42.135Z,36.65
2023-04-29T04:33:42.090Z,36.63
2023-04-29T04:34:42.931Z,36.63
2023-04-29T04:35:42.111Z,36.64
2023-04-29T04:36:42.100Z,36.66
2023-04-29T04:37:42.089Z,36.63
2023-04-29T04:38:42.080Z,36.63
2023-04-29T04:39:42.086Z,36.65
2023-04-29T04:40:42.084Z,36.66
2023-04-29T04:41:42.084Z,36.65
2023-04-29T04:42:42.075Z,36.62
2023-04-29T04:43:42.083Z,36.62
2023-04-29T04:44:42.076Z,36.62
2023-04-29T04:45:42.129Z,36.60
2023-04-29T04:46:42.098Z,36.64
2023-04-29T04:47:42.153Z,36.61
2023-04-29T04:48:42.092Z,36.60
2023-04-29T04:49:42.124Z,36.61
2023-04-29T04:50:42.183Z,36.62
2023-04-29T04:51:42.237Z,36.59
2023-04-29T04:52:42.268Z,36.59
2023-04-29T04:53:42.309Z,36.58
2023-04-29T04:54:42.359Z,36.59
2023-04-29T04:55:42.389Z,36.57
2023-04-29T04:56:42.442Z,36.60
2023-04-29T04:57:42.487Z,36.59
2023-04-29T04:58:42.548Z,36.58
2023-04-29T04:59:42.612Z,36.58
2023-04-29T05:00:42.652Z,36.60
2023-04-29T05:01:42.751Z,36.60
2023-04-29T05:02:42.893Z,36.58
2023-04-29T05:03:42.938Z,36.60
2023-04-29T05:04:42.869Z,36.60
2023-04-29T05:05:42.906Z,36.57
2023-04-29T05:06:42.954Z,36.60
2023-04-29T05:07:43.008Z,36.58
2023-04-29T05:08:43.034Z,36.59
2023-04-29T05:09:43.077Z,36.71
2023-04-29T05:10:44.497Z,36.86
2023-04-29T05:11:43.160Z,37.02
2023-04-29T05:12:43.211Z,37.08
2023-04-29T05:13:43.256Z,37.15
2023-04-29T05:14:43.299Z,37.28
2023-04-29T05:15:43.347Z,37.34
2023-04-29T05:16:43.398Z,37.39
2023-04-29T05:17:43.447Z,37.40
2023-04-29T05:18:43.489Z,37.46
2023-04-29T05:19:43.549Z,37.47
2023-04-29T05:20:43.634Z,37.71
2023-04-29T05:21:43.630Z,37.64
2023-04-29T05:22:43.680Z,37.68
2023-04-29T05:23:43.752Z,38.12
2023-04-29T05:24:43.774Z,38.24
2023-04-29T05:25:43.824Z,38.31
2023-04-29T05:26:43.887Z,38.36
2023-04-29T05:27:43.945Z,38.46
2023-04-29T05:28:43.997Z,38.60
2023-04-29T05:29:44.052Z,38.65
2023-04-29T05:30:44.138Z,38.80
2023-04-29T05:31:44.173Z,38.83
2023-04-29T05:32:44.262Z,38.95
2023-04-29T05:33:44.281Z,38.95
2023-04-29T05:34:44.353Z,39.05
2023-04-29T05:35:44.418Z,39.06
2023-04-29T05:36:44.489Z,39.25
2023-04-29T05:37:44.551Z,39.27
2023-04-29T05:38:44.620Z,39.33
2023-04-29T05:39:44.810Z,39.37
2023-04-29T05:40:44.759Z,39.41
2023-04-29T05:41:44.825Z,39.50
2023-04-29T05:42:44.896Z,39.56
2023-04-29T05:43:44.968Z,39.53
2023-04-29T05:44:45.022Z,39.62
2023-04-29T05:45:45.093Z,39.69
2023-04-29T05:46:45.221Z,39.73
2023-04-29T05:47:45.284Z,39.78
2023-04-29T05:48:45.298Z,39.87
2023-04-29T05:49:45.383Z,39.90
2023-04-29T05:50:45.450Z,39.93
2023-04-29T05:51:45.519Z,40.00
2023-04-29T05:52:45.587Z,39.98
2023-04-29T05:53:45.657Z,40.05
2023-04-29T05:54:45.739Z,40.08
2023-04-29T05:55:45.842Z,40.10
2023-04-29T05:56:45.884Z,40.12
2023-04-29T05:57:45.942Z,40.12
2023-04-29T05:58:46.035Z,40.17
2023-04-29T05:59:46.081Z,40.19
2023-04-29T06:00:46.154Z,40.27
2023-04-29T06:01:46.226Z,40.25
2023-04-29T06:02:57.479Z,40.23
2023-04-29T06:03:46.584Z,40.33
2023-04-29T06:04:46.545Z,40.31
2023-04-29T06:05:46.655Z,40.31
2023-04-29T06:06:46.330Z,40.29
2023-04-29T06:07:46.339Z,40.33
2023-04-29T06:08:46.352Z,40.37
2023-04-29T06:09:46.355Z,40.36
2023-04-29T06:10:46.371Z,40.44
2023-04-29T06:11:46.404Z,40.32
2023-04-29T06:12:46.384Z,40.44
2023-04-29T06:13:46.393Z,40.47
2023-04-29T06:14:46.413Z,40.47
2023-04-29T06:15:46.511Z,40.53
2023-04-29T06:16:46.430Z,40.58
2023-04-29T06:17:46.583Z,40.58
2023-04-29T06:18:46.456Z,40.58
2023-04-29T06:19:46.472Z,40.65
2023-04-29T06:20:46.476Z,40.64
2023-04-29T06:21:46.479Z,40.64
2023-04-29T06:22:46.516Z,40.66
2023-04-29T06:23:46.598Z,40.56
2023-04-29T06:24:46.650Z,40.56
2023-04-29T06:25:46.721Z,40.57
2023-04-29T06:26:46.812Z,40.64
2023-04-29T06:27:46.866Z,40.62
2023-04-29T06:28:46.921Z,40.64
2023-04-29T06:29:46.993Z,40.67
2023-04-29T06:30:47.067Z,40.67
2023-04-29T06:31:47.292Z,40.68
2023-04-29T06:32:47.142Z,40.71
2023-04-29T06:33:47.113Z,40.67
2023-04-29T06:34:47.130Z,40.71
2023-04-29T06:35:47.124Z,40.68
2023-04-29T06:36:47.135Z,40.70
2023-04-29T06:37:47.152Z,40.68
2023-04-29T06:38:47.158Z,40.73
2023-04-29T06:39:47.167Z,40.73
2023-04-29T06:40:47.182Z,40.77
2023-04-29T06:41:47.191Z,40.82
2023-04-29T06:42:47.198Z,40.85
2023-04-29T06:43:48.810Z,40.86
2023-04-29T06:44:47.221Z,40.90
2023-04-29T06:45:47.219Z,40.94
2023-04-29T06:46:47.257Z,41.07
2023-04-29T06:47:47.256Z,41.08
2023-04-29T06:48:47.239Z,41.13
2023-04-29T06:49:47.245Z,41.17
2023-04-29T06:50:47.244Z,41.16
2023-04-29T06:51:47.242Z,41.18
2023-04-29T06:52:47.249Z,41.22
2023-04-29T06:53:47.257Z,41.28
2023-04-29T06:54:47.252Z,41.30
2023-04-29T06:55:47.256Z,41.36
2023-04-29T06:56:47.255Z,41.41
2023-04-29T06:57:47.257Z,41.41
2023-04-29T06:58:47.259Z,41.45
2023-04-29T06:59:47.282Z,41.49
2023-04-29T07:00:47.299Z,41.46
2023-04-29T07:01:49.588Z,41.52
2023-04-29T07:02:47.377Z,41.46
2023-04-29T07:03:47.471Z,41.49
2023-04-29T07:04:47.293Z,41.49
2023-04-29T07:05:47.280Z,41.41
2023-04-29T07:06:47.454Z,41.33
2023-04-29T07:07:47.277Z,41.40
2023-04-29T07:08:47.287Z,41.30
2023-04-29T07:09:47.281Z,41.30
2023-04-29T07:10:47.292Z,41.30
2023-04-29T07:11:47.291Z,41.35
2023-04-29T07:12:47.293Z,41.36
2023-04-29T07:13:47.305Z,41.30
2023-04-29T07:14:47.306Z,41.30
2023-04-29T07:15:47.322Z,41.33
2023-04-29T07:16:47.344Z,41.30
2023-04-29T07:17:47.335Z,41.32
2023-04-29T07:18:47.307Z,41.35
2023-04-29T07:19:47.301Z,41.29
2023-04-29T07:20:47.298Z,41.27
2023-04-29T07:21:47.302Z,41.34
2023-04-29T07:22:47.375Z,41.31
2023-04-29T07:23:47.439Z,41.27
2023-04-29T07:24:47.504Z,41.30
2023-04-29T07:25:47.596Z,41.32
2023-04-29T07:26:47.642Z,41.33
2023-04-29T07:27:47.712Z,41.31
2023-04-29T07:28:47.754Z,41.28
2023-04-29T07:29:47.764Z,41.21
2023-04-29T07:30:47.836Z,41.26
2023-04-29T07:31:47.819Z,41.24
2023-04-29T07:32:47.832Z,41.21
2023-04-29T07:33:47.816Z,41.23
2023-04-29T07:34:47.806Z,41.24
2023-04-29T07:35:47.816Z,41.25
2023-04-29T07:36:47.828Z,41.24
2023-04-29T07:37:47.836Z,41.22
2023-04-29T07:38:47.849Z,41.23
2023-04-29T07:39:47.838Z,41.22
2023-04-29T07:40:47.847Z,41.26
2023-04-29T07:41:47.855Z,41.27
2023-04-29T07:42:47.861Z,41.24
2023-04-29T07:43:47.868Z,41.24
2023-04-29T07:44:47.879Z,41.24
2023-04-29T07:45:47.950Z,41.26
2023-04-29T07:46:48.115Z,41.27
2023-04-29T07:47:47.959Z,41.29
2023-04-29T07:48:47.905Z,41.35
2023-04-29T07:49:47.904Z,41.35
2023-04-29T07:50:47.925Z,41.40
2023-04-29T07:51:47.926Z,41.44
2023-04-29T07:52:47.929Z,41.44
2023-04-29T07:53:47.939Z,41.50
2023-04-29T07:54:47.960Z,41.48
2023-04-29T07:55:47.969Z,41.43
2023-04-29T07:56:47.959Z,41.42
2023-04-29T07:57:47.980Z,41.44
2023-04-29T07:58:47.975Z,41.45
2023-04-29T07:59:47.992Z,41.47
2023-04-29T08:00:47.997Z,41.50
2023-04-29T08:01:48.016Z,41.44
2023-04-29T08:02:48.152Z,41.46
2023-04-29T08:03:48.343Z,41.45
2023-04-29T08:04:48.232Z,41.44
2023-04-29T08:05:48.135Z,41.38
2023-04-29T08:06:48.047Z,41.36
2023-04-29T08:07:48.053Z,41.34
2023-04-29T08:08:48.054Z,41.32
2023-04-29T08:09:48.054Z,41.43
2023-04-29T08:10:48.054Z,41.39
2023-04-29T08:11:48.050Z,41.34
2023-04-29T08:12:48.057Z,41.31
2023-04-29T08:13:48.063Z,41.27
2023-04-29T08:14:48.071Z,41.32
2023-04-29T08:15:48.181Z,41.29
2023-04-29T08:16:48.095Z,41.25
2023-04-29T08:17:48.131Z,41.26
2023-04-29T08:18:48.103Z,41.25
2023-04-29T08:19:48.130Z,41.25
2023-04-29T08:20:48.110Z,41.25
2023-04-29T08:21:48.115Z,41.27
2023-04-29T08:22:48.112Z,41.25
2023-04-29T08:23:48.123Z,41.29
2023-04-29T08:24:48.116Z,41.26
2023-04-29T08:25:48.126Z,41.31
2023-04-29T08:26:48.362Z,41.27
2023-04-29T08:27:48.145Z,41.26
2023-04-29T08:28:48.154Z,41.27
2023-04-29T08:29:48.170Z,41.22
2023-04-29T08:30:48.169Z,41.20
2023-04-29T08:31:48.224Z,41.16
2023-04-29T08:32:48.203Z,41.11
2023-04-29T08:33:48.180Z,41.09
2023-04-29T08:34:48.187Z,41.20
2023-04-29T08:35:48.224Z,41.22
2023-04-29T08:36:48.196Z,41.22
2023-04-29T08:37:48.211Z,41.20
2023-04-29T08:38:48.215Z,41.27
2023-04-29T08:39:48.226Z,41.24
2023-04-29T08:40:48.349Z,41.06
2023-04-29T08:41:48.241Z,41.10
2023-04-29T08:42:48.951Z,41.05
2023-04-29T08:43:48.256Z,41.05
2023-04-29T08:44:48.269Z,41.01
2023-04-29T08:45:48.304Z,40.98
2023-04-29T08:46:48.309Z,40.94
2023-04-29T08:47:48.328Z,40.99
2023-04-29T08:48:48.409Z,40.93
2023-04-29T08:49:48.324Z,40.91
2023-04-29T08:50:48.317Z,40.89
2023-04-29T08:51:48.369Z,40.89
2023-04-29T08:52:48.370Z,40.87
2023-04-29T08:53:48.376Z,40.81
2023-04-29T08:54:48.361Z,40.73
2023-04-29T08:55:48.381Z,40.66
2023-04-29T08:56:48.394Z,40.60
2023-04-29T08:57:48.463Z,40.57
2023-04-29T08:58:48.440Z,40.50
2023-04-29T08:59:48.454Z,40.52
2023-04-29T09:00:48.527Z,40.51
2023-04-29T09:01:48.498Z,40.52
2023-04-29T09:02:48.572Z,40.55
2023-04-29T09:03:49.225Z,40.51
2023-04-29T09:04:48.643Z,40.62
2023-04-29T09:05:48.582Z,40.62
2023-04-29T09:06:48.680Z,40.55
2023-04-29T09:07:48.629Z,40.58
2023-04-29T09:08:48.611Z,40.58
2023-04-29T09:09:48.625Z,40.58
2023-04-29T09:10:48.627Z,40.59
2023-04-29T09:11:48.648Z,40.58
2023-04-29T09:12:48.640Z,40.57
2023-04-29T09:13:48.645Z,40.56
2023-04-29T09:14:48.645Z,40.53
2023-04-29T09:15:48.665Z,40.48
2023-04-29T09:16:48.776Z,40.40
2023-04-29T09:17:48.725Z,40.35
2023-04-29T09:18:48.720Z,40.29
2023-04-29T09:19:48.722Z,40.36
2023-04-29T09:20:48.748Z,40.37
2023-04-29T09:21:47.775Z,40.35
2023-04-29T09:22:48.781Z,40.35
2023-04-29T09:23:48.850Z,40.33
2023-04-29T09:24:48.822Z,40.31
2023-04-29T09:25:48.821Z,40.17
2023-04-29T09:26:50.510Z,40.15
2023-04-29T09:27:48.855Z,40.14
2023-04-29T09:28:48.840Z,40.20
2023-04-29T09:29:48.838Z,40.19
2023-04-29T09:30:48.832Z,40.16
2023-04-29T09:31:48.868Z,40.15
2023-04-29T09:32:48.851Z,40.14
2023-04-29T09:33:48.829Z,40.18
2023-04-29T09:34:48.835Z,40.17
2023-04-29T09:35:48.841Z,40.11
2023-04-29T09:36:48.840Z,40.07
2023-04-29T09:37:48.829Z,40.03
2023-04-29T09:38:48.821Z,39.98
2023-04-29T09:39:48.856Z,39.95
2023-04-29T09:40:59.132Z,39.92
2023-04-29T09:41:48.813Z,39.93
2023-04-29T09:42:48.805Z,39.96
2023-04-29T09:43:48.820Z,39.95
2023-04-29T09:44:48.809Z,39.88
2023-04-29T09:45:48.843Z,39.80
2023-04-29T09:46:48.809Z,39.79
2023-04-29T09:47:48.844Z,39.76
2023-04-29T09:48:48.815Z,39.79
2023-04-29T09:49:48.836Z,39.79
2023-04-29T09:50:48.823Z,39.84
2023-04-29T09:51:48.801Z,39.86
2023-04-29T09:52:48.801Z,39.84
2023-04-29T09:53:48.797Z,39.84
2023-04-29T09:54:48.797Z,39.79
2023-04-29T09:55:48.834Z,39.79
2023-04-29T09:56:48.800Z,39.72
2023-04-29T09:57:48.793Z,39.73
2023-04-29T09:58:48.788Z,39.75
2023-04-29T09:59:48.787Z,39.76
2023-04-29T10:00:48.794Z,39.70
2023-04-29T10:01:48.850Z,39.69
2023-04-29T10:02:48.880Z,39.64
2023-04-29T10:03:48.994Z,39.60
2023-04-29T10:04:48.872Z,39.54
2023-04-29T10:05:48.779Z,39.51
2023-04-29T10:06:48.783Z,39.52
2023-04-29T10:07:49.065Z,39.54
2023-04-29T10:08:48.769Z,39.57
2023-04-29T10:09:48.974Z,39.58
2023-04-29T10:10:48.758Z,39.56
2023-04-29T10:11:48.793Z,39.63
2023-04-29T10:12:49.558Z,39.66
2023-04-29T10:13:48.760Z,39.65
2023-04-29T10:14:48.768Z,39.67
2023-04-29T10:15:48.827Z,39.67
2023-04-29T10:16:48.905Z,39.74
2023-04-29T10:17:48.951Z,39.76
2023-04-29T10:18:49.062Z,39.81
2023-04-29T10:19:49.083Z,39.90
2023-04-29T10:20:49.133Z,39.96
2023-04-29T10:21:50.001Z,39.97
2023-04-29T10:22:49.271Z,40.14
2023-04-29T10:23:49.333Z,39.94
2023-04-29T10:24:49.409Z,39.98
2023-04-29T10:25:49.465Z,40.06
2023-04-29T10:26:49.532Z,40.14
2023-04-29T10:27:49.629Z,40.13
2023-04-29T10:28:49.668Z,40.61
2023-04-29T10:29:49.717Z,40.98
2023-04-29T10:30:49.793Z,40.87
2023-04-29T10:31:49.896Z,40.91
2023-04-29T10:32:51.660Z,41.25
2023-04-29T10:33:49.917Z,41.34
2023-04-29T10:34:49.923Z,41.41
2023-04-29T10:35:49.898Z,41.37
2023-04-29T10:36:49.901Z,41.63
2023-04-29T10:37:49.913Z,41.81
2023-04-29T10:38:49.899Z,42.02
2023-04-29T10:39:49.883Z,42.04
2023-04-29T10:40:49.931Z,42.24
2023-04-29T10:41:49.867Z,42.39
2023-04-29T10:42:49.872Z,42.56
2023-04-29T10:43:49.879Z,42.47
2023-04-29T10:44:49.882Z,42.39
2023-04-29T10:45:49.871Z,42.35
2023-04-29T10:46:49.916Z,42.41
2023-04-29T10:47:49.852Z,42.33
2023-04-29T10:48:49.836Z,42.35
2023-04-29T10:49:49.834Z,42.36
2023-04-29T10:50:50.016Z,42.52
2023-04-29T10:51:49.822Z,42.51
2023-04-29T10:52:49.827Z,42.48
2023-04-29T10:53:49.807Z,42.40
2023-04-29T10:54:49.830Z,42.47
2023-04-29T10:55:49.856Z,42.47
2023-04-29T10:56:49.800Z,42.44
2023-04-29T10:57:49.795Z,42.40
2023-04-29T10:58:49.787Z,42.31
2023-04-29T10:59:49.807Z,42.32
2023-04-29T11:00:49.818Z,42.35
2023-04-29T11:01:49.856Z,42.27
2023-04-29T11:02:50.002Z,42.22
2023-04-29T11:03:50.146Z,42.24
2023-04-29T11:04:50.230Z,42.28
2023-04-29T11:05:50.070Z,42.31
2023-04-29T11:06:50.135Z,42.27
2023-04-29T11:07:50.176Z,42.20
2023-04-29T11:08:50.219Z,42.20
2023-04-29T11:09:50.261Z,42.26
2023-04-29T11:10:50.323Z,42.20
2023-04-29T11:11:50.398Z,42.14
2023-04-29T11:12:50.412Z,42.22
2023-04-29T11:13:50.463Z,42.28
2023-04-29T11:14:50.533Z,42.27
2023-04-29T11:15:50.572Z,42.26
2023-04-29T11:16:50.622Z,42.25
2023-04-29T11:17:50.730Z,42.32
2023-04-29T11:18:50.718Z,42.41
2023-04-29T11:19:50.764Z,42.31
2023-04-29T11:20:50.785Z,42.31
2023-04-29T11:21:50.864Z,42.38
2023-04-29T11:22:50.951Z,42.48
2023-04-29T11:23:50.991Z,42.40
2023-04-29T11:24:51.137Z,42.45
2023-04-29T11:25:51.132Z,42.56
2023-04-29T11:26:51.169Z,42.49
2023-04-29T11:27:51.201Z,42.56
2023-04-29T11:28:51.236Z,42.51
2023-04-29T11:29:51.291Z,42.49
2023-04-29T11:30:51.306Z,42.47
2023-04-29T11:31:51.438Z,42.57
2023-04-29T11:32:51.516Z,42.54
2023-04-29T11:33:51.410Z,42.57
2023-04-29T11:34:51.754Z,42.54
2023-04-29T11:35:51.484Z,42.55
2023-04-29T11:36:51.545Z,42.46
2023-04-29T11:37:51.566Z,42.49
2023-04-29T11:38:51.601Z,42.47
2023-04-29T11:39:51.631Z,42.46
2023-04-29T11:40:51.678Z,42.48
2023-04-29T11:41:52.678Z,42.41
2023-04-29T11:42:51.758Z,42.40
2023-04-29T11:43:51.810Z,42.36
2023-04-29T11:44:52.096Z,42.29
2023-04-29T11:45:52.004Z,42.20
2023-04-29T11:46:52.004Z,42.16
2023-04-29T11:47:54.823Z,42.11
2023-04-29T11:48:52.065Z,42.07
2023-04-29T11:49:52.062Z,42.03
2023-04-29T11:50:52.053Z,41.95
2023-04-29T11:51:52.053Z,41.74
2023-04-29T11:52:52.056Z,41.69
2023-04-29T11:53:52.051Z,41.63
2023-04-29T11:54:52.180Z,41.64
2023-04-29T11:55:52.053Z,41.49
2023-04-29T11:56:52.057Z,41.27
2023-04-29T11:57:52.056Z,41.17
2023-04-29T11:58:52.055Z,40.98
2023-04-29T11:59:52.058Z,40.80
2023-04-29T12:00:52.066Z,40.71
2023-04-29T12:01:52.073Z,40.66
2023-04-29T12:02:52.216Z,40.55
2023-04-29T12:03:52.234Z,40.48
2023-04-29T12:04:52.327Z,40.40
2023-04-29T12:05:52.160Z,40.34
2023-04-29T12:06:52.186Z,40.28
2023-04-29T12:07:52.231Z,40.22
2023-04-29T12:08:52.306Z,40.11
2023-04-29T12:09:52.371Z,40.03
2023-04-29T12:10:52.429Z,39.92
2023-04-29T12:11:52.446Z,39.93
2023-04-29T12:12:52.502Z,39.87
2023-04-29T12:13:52.558Z,39.72
2023-04-29T12:14:52.961Z,39.77
2023-04-29T12:15:52.695Z,39.70
2023-04-29T12:16:52.697Z,39.62
2023-04-29T12:17:52.765Z,39.57
2023-04-29T12:18:52.793Z,39.55
2023-04-29T12:19:52.863Z,39.54
2023-04-29T12:20:52.883Z,39.49
2023-04-29T12:21:52.915Z,39.45
2023-04-29T12:22:52.989Z,39.43
2023-04-29T12:23:52.999Z,39.44
2023-04-29T12:24:53.283Z,39.43
2023-04-29T12:25:53.191Z,39.41
2023-04-29T12:26:53.123Z,39.38
2023-04-29T12:27:53.154Z,39.35
2023-04-29T12:28:53.194Z,39.29
2023-04-29T12:29:53.225Z,39.26
2023-04-29T12:30:53.262Z,39.25
2023-04-29T12:31:53.498Z,39.23
2023-04-29T12:32:53.418Z,39.19
2023-04-29T12:33:53.380Z,39.19
2023-04-29T12:34:53.730Z,39.17
2023-04-29T12:35:53.480Z,39.18
2023-04-29T12:36:53.499Z,39.21
2023-04-29T12:37:53.554Z,39.18
2023-04-29T12:38:53.585Z,39.05
2023-04-29T12:39:53.623Z,38.95
2023-04-29T12:40:53.666Z,38.83
2023-04-29T12:41:53.710Z,38.79
2023-04-29T12:42:53.753Z,38.68
2023-04-29T12:43:53.793Z,38.62
2023-04-29T12:44:54.061Z,38.50
2023-04-29T12:45:53.888Z,38.42
2023-04-29T12:46:55.580Z,38.37
2023-04-29T12:47:53.962Z,38.35
2023-04-29T12:48:53.929Z,38.26
2023-04-29T12:49:53.932Z,38.33
2023-04-29T12:50:53.928Z,38.41
2023-04-29T12:51:53.951Z,38.52
2023-04-29T12:52:53.917Z,38.43
2023-04-29T12:53:53.912Z,38.44
2023-04-29T12:54:54.130Z,38.50
2023-04-29T12:55:53.914Z,38.49